createdAt,value
2022-12-23T00:00:43.759Z,86.52
2022-12-23T00:03:11.216Z,86.51
2022-12-23T00:05:39.331Z,86.32
2022-12-23T00:08:07.959Z,85.67
2022-12-23T00:10:38.461Z,85.81
2022-12-23T00:13:24.103Z,85.50
2022-12-23T00:15:51.241Z,85.13
2022-12-23T00:18:18.633Z,85.40
2022-12-23T00:20:46.069Z,85.39
2022-12-23T00:23:13.827Z,85.80
2022-12-23T00:25:45.157Z,86.05
2022-12-23T00:28:15.731Z,85.89
2022-12-23T00:31:01.528Z,85.65
2022-12-23T00:33:33.235Z,85.56
2022-12-23T00:36:00.726Z,85.54
2022-12-23T00:38:46.979Z,85.13
2022-12-23T00:41:36.665Z,85.36
2022-12-23T00:44:04.708Z,85.27
2022-12-23T00:46:32.653Z,85.50
2022-12-23T00:49:18.692Z,85.22
2022-12-23T00:51:46.540Z,85.44
2022-12-23T00:54:14.109Z,85.31
2022-12-23T00:56:41.401Z,85.53
2022-12-23T00:59:08.722Z,85.39
2022-12-23T01:01:54.913Z,85.48
2022-12-23T01:04:41.759Z,85.57
2022-12-23T01:07:09.429Z,85.22
2022-12-23T01:09:37.160Z,85.33
2022-12-23T01:12:05.007Z,85.46
2022-12-23T01:14:32.761Z,85.79
2022-12-23T01:17:00.606Z,85.72
2022-12-23T01:19:28.592Z,84.76
2022-12-23T01:21:56.003Z,84.86
2022-12-23T01:24:23.446Z,84.71
2022-12-23T01:26:50.954Z,84.93
2022-12-23T01:29:18.600Z,84.66
2022-12-23T01:31:46.244Z,85.05
2022-12-23T01:34:13.882Z,85.34
2022-12-23T01:36:41.369Z,85.46
2022-12-23T01:39:08.777Z,85.49
2022-12-23T01:41:54.879Z,84.70
2022-12-23T01:44:50.161Z,83.75
2022-12-23T01:47:23.016Z,83.73
2022-12-23T01:49:51.004Z,83.90
2022-12-23T01:52:18.718Z,83.23
2022-12-23T01:54:46.237Z,83.46
2022-12-23T01:57:13.789Z,83.54
2022-12-23T02:00:00.458Z,83.93
2022-12-23T02:02:48.968Z,83.99
2022-12-23T02:05:17.188Z,84.25
2022-12-23T02:08:03.186Z,84.37
2022-12-23T02:10:36.474Z,84.83
2022-12-23T02:13:26.296Z,85.06
2022-12-23T02:16:18.967Z,85.00
2022-12-23T02:18:52.650Z,84.62
2022-12-23T02:21:31.809Z,84.79
2022-12-23T02:24:21.169Z,84.90
2022-12-23T02:27:17.582Z,84.87
2022-12-23T02:30:06.813Z,85.31
2022-12-23T02:33:08.199Z,85.21
2022-12-23T02:35:38.683Z,84.66
2022-12-23T02:38:31.916Z,84.40
2022-12-23T02:41:07.563Z,84.51
2022-12-23T02:43:45.310Z,85.06
2022-12-23T02:46:24.706Z,85.17
2022-12-23T02:49:04.049Z,84.46
2022-12-23T02:51:34.824Z,85.10
2022-12-23T02:54:05.057Z,84.98
2022-12-23T02:56:34.204Z,85.58
2022-12-23T02:59:09.146Z,85.83
2022-12-23T03:01:37.579Z,85.92
2022-12-23T03:04:06.927Z,86.21
2022-12-23T03:06:40.604Z,86.23
2022-12-23T03:09:08.603Z,86.42
2022-12-23T03:11:59.213Z,86.13
2022-12-23T03:15:04.062Z,86.50
2022-12-23T03:17:43.750Z,86.88
2022-12-23T03:20:29.214Z,87.27
2022-12-23T03:23:11.947Z,87.39
2022-12-23T03:25:48.599Z,87.42
2022-12-23T03:28:25.072Z,86.75
2022-12-23T03:30:55.212Z,87.23
2022-12-23T03:33:28.953Z,86.55
2022-12-23T03:36:01.093Z,86.68
2022-12-23T03:38:29.525Z,87.12
2022-12-23T03:40:59.703Z,87.15
2022-12-23T03:43:31.225Z,87.04
2022-12-23T03:46:01.694Z,87.48
2022-12-23T03:48:41.081Z,87.61
2022-12-23T03:51:16.083Z,87.55
2022-12-23T03:53:51.732Z,87.82
2022-12-23T03:56:31.972Z,88.33
2022-12-23T03:59:01.530Z,88.40
2022-12-23T04:01:55.839Z,88.83
2022-12-23T04:04:48.242Z,88.58
2022-12-23T04:07:24.477Z,88.53
2022-12-23T04:09:52.813Z,88.09
2022-12-23T04:12:23.537Z,88.23
2022-12-23T04:14:50.994Z,87.81
2022-12-23T04:17:19.371Z,88.10
2022-12-23T04:19:47.633Z,88.14
2022-12-23T04:22:16.658Z,88.38
2022-12-23T04:24:44.636Z,88.38
2022-12-23T04:27:13.799Z,88.50
2022-12-23T04:29:41.458Z,88.65
2022-12-23T04:32:09.379Z,89.13
2022-12-23T04:34:37.251Z,89.71
2022-12-23T04:37:04.894Z,89.74
2022-12-23T04:39:32.564Z,89.31
2022-12-23T04:41:59.965Z,88.51
2022-12-23T04:44:27.648Z,88.71
2022-12-23T04:46:55.680Z,88.78
2022-12-23T04:49:23.382Z,88.77
2022-12-23T04:51:51.275Z,88.78
2022-12-23T04:54:19.016Z,88.66
2022-12-23T04:56:46.570Z,88.91
2022-12-23T04:59:14.275Z,88.72
2022-12-23T05:01:42.860Z,89.18
2022-12-23T05:04:10.924Z,88.67
2022-12-23T05:06:38.283Z,88.84
2022-12-23T05:09:06.402Z,89.32
2022-12-23T05:11:40.167Z,89.46
2022-12-23T05:14:13.246Z,89.70
2022-12-23T05:16:40.646Z,89.32
2022-12-23T05:19:08.274Z,89.18
2022-12-23T05:21:36.014Z,89.07
2022-12-23T05:24:03.929Z,89.12
2022-12-23T05:26:31.775Z,89.11
2022-12-23T05:28:59.589Z,88.91
2022-12-23T05:31:27.312Z,89.25
2022-12-23T05:33:56.007Z,89.60
2022-12-23T05:36:24.881Z,89.78
2022-12-23T05:38:52.277Z,89.43
2022-12-23T05:41:19.851Z,89.26
2022-12-23T05:43:47.491Z,89.44
2022-12-23T05:46:15.505Z,89.45
2022-12-23T05:48:44.592Z,89.08
2022-12-23T05:51:12.037Z,89.09
2022-12-23T05:53:39.370Z,88.97
2022-12-23T05:56:07.262Z,88.74
2022-12-23T05:58:34.942Z,88.86
2022-12-23T06:01:03.286Z,88.32
2022-12-23T06:03:31.256Z,88.57
2022-12-23T06:05:59.289Z,88.19
2022-12-23T06:08:26.951Z,88.82
2022-12-23T06:10:54.291Z,88.75
2022-12-23T06:13:21.906Z,88.51
2022-12-23T06:15:49.163Z,89.03
2022-12-23T06:18:17.051Z,89.32
2022-12-23T06:20:48.204Z,89.30
2022-12-23T06:23:16.064Z,89.32
2022-12-23T06:25:43.613Z,89.71
2022-12-23T06:28:11.427Z,90.20
2022-12-23T06:30:38.894Z,90.35
2022-12-23T06:33:06.624Z,90.47
2022-12-23T06:35:34.303Z,90.87
2022-12-23T06:38:01.624Z,90.93
2022-12-23T06:40:29.968Z,90.82
2022-12-23T06:42:57.703Z,90.95
2022-12-23T06:45:25.181Z,90.87
2022-12-23T06:47:52.731Z,90.67
2022-12-23T06:50:20.922Z,90.62
2022-12-23T06:52:49.117Z,90.33
2022-12-23T06:55:16.978Z,90.12
2022-12-23T06:57:45.189Z,90.18
2022-12-23T07:00:13.477Z,89.82
2022-12-23T07:02:41.056Z,90.31
2022-12-23T07:05:09.315Z,90.50
2022-12-23T07:07:36.991Z,90.12
2022-12-23T07:10:05.728Z,90.05
2022-12-23T07:12:34.324Z,89.45
2022-12-23T07:15:01.819Z,89.52
2022-12-23T07:17:30.202Z,89.41
2022-12-23T07:19:57.632Z,88.55
2022-12-23T07:22:25.325Z,88.79
2022-12-23T07:24:53.000Z,89.02
2022-12-23T07:27:20.407Z,88.43
2022-12-23T07:29:47.839Z,87.92
2022-12-23T07:32:15.215Z,88.83
2022-12-23T07:34:42.928Z,88.36
2022-12-23T07:37:10.208Z,88.96
2022-12-23T07:39:37.658Z,88.58
2022-12-23T07:44:52.662Z,88.56
2022-12-23T07:47:20.212Z,88.55
2022-12-23T07:49:47.718Z,88.65
2022-12-23T07:52:15.215Z,88.30
2022-12-23T07:54:42.824Z,88.20
2022-12-23T07:57:10.335Z,87.64
2022-12-23T07:59:38.022Z,87.70
2022-12-23T08:02:05.401Z,87.81
2022-12-23T08:04:32.943Z,87.59
2022-12-23T08:07:00.239Z,87.78
2022-12-23T08:09:27.945Z,87.21
2022-12-23T08:11:55.225Z,87.56
2022-12-23T08:14:23.492Z,87.08
2022-12-23T08:16:50.847Z,85.98
2022-12-23T08:19:18.235Z,86.53
2022-12-23T08:21:46.043Z,85.98
2022-12-23T08:24:13.848Z,86.13
2022-12-23T08:26:41.348Z,86.68
2022-12-23T08:29:08.859Z,86.36
2022-12-23T08:31:36.238Z,87.04
2022-12-23T08:34:03.688Z,87.67
2022-12-23T08:36:34.843Z,88.16
2022-12-23T08:39:08.198Z,87.37
2022-12-23T08:41:44.046Z,87.05
2022-12-23T08:44:12.059Z,87.15
2022-12-23T08:46:40.105Z,87.50
2022-12-23T08:49:07.872Z,87.09
2022-12-23T08:51:35.869Z,88.06
2022-12-23T08:54:03.882Z,88.10
2022-12-23T08:56:34.268Z,88.24
2022-12-23T08:59:02.083Z,88.38
2022-12-23T09:01:31.342Z,87.91
2022-12-23T09:03:59.210Z,87.93
2022-12-23T09:06:30.294Z,86.91
2022-12-23T09:08:58.646Z,87.21
2022-12-23T09:11:27.903Z,87.20
2022-12-23T09:13:56.368Z,86.98
2022-12-23T09:16:24.135Z,86.69
2022-12-23T09:18:51.538Z,86.99
2022-12-23T09:21:20.939Z,86.73
2022-12-23T09:23:48.978Z,86.96
2022-12-23T09:26:24.900Z,87.60
2022-12-23T09:28:52.547Z,87.29
2022-12-23T09:31:20.938Z,86.80
2022-12-23T09:33:49.924Z,87.30
2022-12-23T09:36:18.150Z,86.71
2022-12-23T09:38:45.729Z,86.60
2022-12-23T09:41:50.304Z,86.60
2022-12-23T09:44:44.840Z,86.24
2022-12-23T09:47:20.100Z,86.33
2022-12-23T09:49:50.947Z,86.00
2022-12-23T09:52:27.858Z,86.03
2022-12-23T09:54:55.951Z,85.25
2022-12-23T09:57:30.286Z,85.21
2022-12-23T10:00:07.113Z,84.97
2022-12-23T10:02:44.103Z,84.81
2022-12-23T10:05:41.400Z,85.34
2022-12-23T10:08:18.400Z,85.89
2022-12-23T10:10:50.298Z,85.24
2022-12-23T10:13:26.695Z,84.85
2022-12-23T10:15:54.987Z,85.49
2022-12-23T10:18:29.111Z,85.62
2022-12-23T10:21:29.356Z,85.19
2022-12-23T10:23:57.113Z,84.79
2022-12-23T10:26:40.035Z,85.44
2022-12-23T10:29:20.757Z,85.42
2022-12-23T10:32:06.165Z,85.50
2022-12-23T10:35:08.313Z,85.02
2022-12-23T10:37:43.057Z,85.31
2022-12-23T10:40:16.310Z,85.53
2022-12-23T10:42:52.894Z,85.78
2022-12-23T10:45:25.408Z,85.00
2022-12-23T10:48:07.413Z,85.38
2022-12-23T10:51:01.133Z,85.80
2022-12-23T10:53:38.256Z,86.46
2022-12-23T10:56:06.437Z,86.59
2022-12-23T10:58:37.423Z,86.58
2022-12-23T11:01:14.992Z,86.27
2022-12-23T11:03:54.490Z,85.80
2022-12-23T11:06:21.956Z,85.94
2022-12-23T11:08:49.419Z,85.83
2022-12-23T11:11:17.000Z,85.43
2022-12-23T11:13:47.710Z,85.51
2022-12-23T11:16:26.985Z,86.12
2022-12-23T11:19:00.428Z,86.15
2022-12-23T11:21:29.277Z,85.73
2022-12-23T11:24:16.312Z,84.94
2022-12-23T11:26:46.156Z,84.45
2022-12-23T11:29:23.431Z,84.66
2022-12-23T11:31:51.436Z,84.55
2022-12-23T11:34:20.860Z,85.12
2022-12-23T11:37:07.142Z,85.36
2022-12-23T11:39:37.233Z,84.35
2022-12-23T11:42:16.438Z,84.42
2022-12-23T11:44:50.136Z,83.77
2022-12-23T11:47:26.304Z,83.43
2022-12-23T11:50:01.440Z,83.57
2022-12-23T11:52:31.170Z,83.43
2022-12-23T11:55:00.942Z,82.76
2022-12-23T11:57:38.176Z,82.92
2022-12-23T12:00:07.947Z,83.18
2022-12-23T12:02:40.114Z,82.93
2022-12-23T12:05:17.452Z,83.27
2022-12-23T12:07:45.450Z,82.67
2022-12-23T12:10:33.464Z,82.89
2022-12-23T12:13:19.449Z,83.22
2022-12-23T12:15:57.961Z,83.55
2022-12-23T12:18:26.651Z,83.36
2022-12-23T12:20:57.187Z,83.68
2022-12-23T12:23:43.610Z,83.65
2022-12-23T12:26:25.183Z,83.31
2022-12-23T12:28:59.465Z,83.65
2022-12-23T12:31:32.968Z,83.75
2022-12-23T12:34:24.196Z,83.69
2022-12-23T12:37:07.998Z,83.66
2022-12-23T12:39:42.657Z,83.93
2022-12-23T12:42:22.984Z,83.84
2022-12-23T12:45:23.335Z,83.83
2022-12-23T12:48:13.138Z,83.50
2022-12-23T12:50:57.426Z,84.02
2022-12-23T12:53:25.299Z,84.11
2022-12-23T12:55:57.946Z,84.08
2022-12-23T12:58:25.681Z,83.94
2022-12-23T13:01:13.603Z,83.65
2022-12-23T13:04:00.207Z,83.53
2022-12-23T13:06:45.993Z,83.42
2022-12-23T13:09:48.091Z,83.32
2022-12-23T13:12:46.004Z,83.27
2022-12-23T13:15:24.687Z,83.61
2022-12-23T13:18:21.002Z,83.13
2022-12-23T13:21:06.358Z,83.24
2022-12-23T13:23:48.684Z,83.45
2022-12-23T13:26:25.116Z,83.77
2022-12-23T13:29:15.482Z,84.05
2022-12-23T13:32:01.694Z,84.08
2022-12-23T13:35:01.485Z,83.56
2022-12-23T13:38:24.088Z,83.52
2022-12-23T13:41:06.016Z,83.36
2022-12-23T13:43:45.487Z,83.43
2022-12-23T13:46:30.458Z,83.64
2022-12-23T13:49:10.555Z,83.67
2022-12-23T13:51:53.221Z,83.59
2022-12-23T13:54:38.015Z,83.19
2022-12-23T13:57:29.701Z,83.02
2022-12-23T14:00:22.673Z,83.56
2022-12-23T14:03:01.104Z,83.59
2022-12-23T14:05:41.148Z,83.48
2022-12-23T14:08:20.845Z,84.04
2022-12-23T14:10:59.044Z,84.23
2022-12-23T14:17:17.043Z,85.18
2022-12-23T14:20:02.165Z,84.76
2022-12-23T14:23:04.835Z,84.47
2022-12-23T14:25:44.410Z,84.64
2022-12-23T14:28:32.074Z,84.62
2022-12-23T14:30:59.744Z,84.54
2022-12-23T14:33:33.425Z,85.03
2022-12-23T14:36:23.591Z,84.78
2022-12-23T14:39:12.508Z,84.63
2022-12-23T14:41:50.412Z,84.66
2022-12-23T14:44:42.061Z,84.60
2022-12-23T14:47:34.045Z,84.21
2022-12-23T14:50:36.734Z,84.36
2022-12-23T14:53:21.255Z,84.28
2022-12-23T14:55:50.427Z,84.53
2022-12-23T14:58:21.787Z,84.60
2022-12-23T15:01:13.525Z,84.74
2022-12-23T15:03:47.075Z,84.39
2022-12-23T15:06:27.074Z,84.44
2022-12-23T15:08:55.746Z,84.58
2022-12-23T15:11:29.522Z,84.63
2022-12-23T15:13:59.257Z,84.98
2022-12-23T15:16:33.593Z,85.21
2022-12-23T15:19:13.258Z,85.12
2022-12-23T15:21:40.532Z,85.26
2022-12-23T15:24:15.091Z,85.44
2022-12-23T15:27:03.629Z,85.26
2022-12-23T15:29:33.665Z,85.40
2022-12-23T15:32:01.555Z,85.41
2022-12-23T15:34:33.873Z,84.74
2022-12-23T15:37:01.377Z,85.16
2022-12-23T15:39:34.089Z,85.18
2022-12-23T15:42:02.268Z,85.28
2022-12-23T15:44:38.772Z,85.30
2022-12-23T15:47:32.875Z,85.10
2022-12-23T15:50:01.149Z,85.17
2022-12-23T15:52:30.651Z,85.25
2022-12-23T15:55:04.270Z,84.95
2022-12-23T15:57:32.048Z,85.31
2022-12-23T16:00:00.162Z,85.40
2022-12-23T16:05:35.360Z,84.88
2022-12-23T16:08:29.075Z,85.42
2022-12-23T16:11:18.781Z,85.07
2022-12-23T16:14:01.838Z,85.56
2022-12-23T16:16:38.640Z,85.68
2022-12-23T16:19:06.539Z,85.76
2022-12-23T16:21:35.760Z,85.78
2022-12-23T16:24:08.127Z,85.93
2022-12-23T16:26:42.679Z,86.11
2022-12-23T16:29:11.128Z,86.49
2022-12-23T16:31:42.789Z,86.07
2022-12-23T16:34:13.789Z,85.21
2022-12-23T16:36:41.401Z,85.93
2022-12-23T16:39:17.898Z,85.32
2022-12-23T16:41:45.468Z,85.06
2022-12-23T16:44:12.892Z,85.18
2022-12-23T16:46:44.557Z,85.16
2022-12-23T16:49:19.510Z,84.99
2022-12-23T16:51:47.857Z,85.02
2022-12-23T16:54:18.947Z,85.35
2022-12-23T16:56:50.523Z,85.81
2022-12-23T16:59:18.300Z,85.90
2022-12-23T17:01:47.682Z,86.08
2022-12-23T17:04:16.198Z,86.18
2022-12-23T17:06:43.809Z,86.35
2022-12-23T17:09:11.987Z,86.12
2022-12-23T17:11:49.903Z,85.99
2022-12-23T17:14:22.888Z,86.43
2022-12-23T17:16:51.006Z,86.78
2022-12-23T17:19:27.201Z,86.61
2022-12-23T17:22:00.398Z,86.39
2022-12-23T17:24:28.318Z,86.62
2022-12-23T17:26:57.180Z,86.99
2022-12-23T17:29:24.805Z,86.72
2022-12-23T17:31:52.828Z,87.29
2022-12-23T17:34:24.846Z,87.32
2022-12-23T17:36:53.187Z,87.77
2022-12-23T17:39:21.415Z,87.64
2022-12-23T17:41:49.025Z,87.88
2022-12-23T17:44:17.983Z,87.96
2022-12-23T17:46:46.277Z,87.68
2022-12-23T17:49:14.015Z,88.05
2022-12-23T17:51:42.007Z,87.98
2022-12-23T17:54:21.774Z,87.82
2022-12-23T17:56:49.544Z,87.47
2022-12-23T17:59:17.323Z,87.45
2022-12-23T18:01:45.067Z,86.62
2022-12-23T18:04:12.700Z,86.40
2022-12-23T18:06:39.931Z,85.97
2022-12-23T18:09:07.532Z,85.54
2022-12-23T18:11:38.138Z,85.37
2022-12-23T18:14:05.720Z,85.98
2022-12-23T18:16:33.069Z,86.87
2022-12-23T18:19:00.850Z,86.95
2022-12-23T18:21:29.259Z,87.67
2022-12-23T18:23:58.205Z,87.47
2022-12-23T18:26:25.875Z,87.51
2022-12-23T18:28:54.710Z,87.27
2022-12-23T18:31:27.600Z,87.24
2022-12-23T18:33:55.454Z,87.58
2022-12-23T18:36:29.147Z,87.29
2022-12-23T18:38:57.594Z,87.67
2022-12-23T18:41:26.260Z,88.08
2022-12-23T18:43:54.431Z,88.73
2022-12-23T18:46:21.925Z,87.68
2022-12-23T18:48:49.799Z,87.28
2022-12-23T18:51:19.242Z,87.79
2022-12-23T18:53:47.886Z,88.20
2022-12-23T18:56:16.439Z,87.95
2022-12-23T18:58:44.198Z,87.56
2022-12-23T19:01:13.139Z,88.12
2022-12-23T19:03:41.092Z,87.88
2022-12-23T19:06:10.242Z,87.67
2022-12-23T19:08:38.590Z,87.74
2022-12-23T19:11:20.668Z,87.60
2022-12-23T19:13:48.244Z,87.57
2022-12-23T19:16:17.953Z,87.87
2022-12-23T19:18:46.454Z,88.50
2022-12-23T19:21:14.796Z,89.89
2022-12-23T19:23:43.073Z,90.59
2022-12-23T19:26:12.594Z,90.89
2022-12-23T19:28:44.263Z,90.57
2022-12-23T19:31:13.313Z,90.30
2022-12-23T19:33:42.257Z,89.67
2022-12-23T19:36:17.540Z,89.42
2022-12-23T19:38:45.852Z,88.50
2022-12-23T19:41:13.617Z,87.86
2022-12-23T19:43:43.935Z,87.54
2022-12-23T19:46:12.946Z,87.08
2022-12-23T19:48:40.635Z,86.96
2022-12-23T19:51:09.393Z,86.36
2022-12-23T19:53:37.907Z,85.96
2022-12-23T19:56:08.475Z,86.21
2022-12-23T19:58:37.372Z,86.10
2022-12-23T20:01:09.663Z,86.29
2022-12-23T20:03:38.070Z,86.72
2022-12-23T20:06:06.467Z,86.66
2022-12-23T20:08:35.176Z,86.59
2022-12-23T20:11:11.282Z,86.29
2022-12-23T20:13:39.052Z,85.91
2022-12-23T20:16:07.615Z,86.34
2022-12-23T20:18:35.473Z,86.08
2022-12-23T20:21:03.855Z,85.95
2022-12-23T20:23:31.627Z,86.26
2022-12-23T20:25:59.382Z,86.05
2022-12-23T20:28:26.810Z,85.82
2022-12-23T20:31:16.148Z,86.47
2022-12-23T20:33:43.667Z,86.83
2022-12-23T20:36:13.631Z,87.15
2022-12-23T20:38:43.303Z,87.15
2022-12-23T20:41:13.638Z,87.12
2022-12-23T20:43:42.537Z,87.10
2022-12-23T20:46:12.971Z,87.12
2022-12-23T20:48:41.109Z,86.33
2022-12-23T20:51:12.642Z,86.49
2022-12-23T20:53:40.652Z,86.18
2022-12-23T20:56:11.644Z,86.59
2022-12-23T20:58:58.212Z,86.15
2022-12-23T21:01:28.905Z,86.42
2022-12-23T21:03:57.650Z,86.19
2022-12-23T21:06:25.650Z,85.84
2022-12-23T21:08:56.405Z,86.46
2022-12-23T21:11:23.804Z,86.08
2022-12-23T21:13:51.656Z,86.07
2022-12-23T21:16:19.992Z,86.02
2022-12-23T21:18:53.501Z,85.85
2022-12-23T21:21:23.968Z,85.37
2022-12-23T21:23:52.413Z,85.81
2022-12-23T21:26:21.963Z,85.61
2022-12-23T21:28:50.665Z,85.28
2022-12-23T21:31:22.727Z,85.08
2022-12-23T21:33:51.643Z,85.68
2022-12-23T21:36:21.791Z,85.89
2022-12-23T21:38:49.871Z,86.44
2022-12-23T21:41:23.520Z,86.82
2022-12-23T21:43:51.519Z,87.05
2022-12-23T21:46:21.618Z,86.29
2022-12-23T21:48:50.455Z,86.33
2022-12-23T21:51:20.515Z,86.43
2022-12-23T21:53:51.521Z,86.14
2022-12-23T21:56:22.144Z,86.77
2022-12-23T21:58:49.775Z,86.59
2022-12-23T22:01:19.721Z,86.77
2022-12-23T22:03:49.523Z,86.53
2022-12-23T22:06:22.934Z,86.70
2022-12-23T22:08:52.693Z,86.94
2022-12-23T22:11:26.463Z,86.97
2022-12-23T22:13:55.689Z,86.86
2022-12-23T22:16:25.583Z,86.98
2022-12-23T22:18:53.690Z,86.56
2022-12-23T22:21:23.690Z,86.28
2022-12-23T22:23:51.991Z,86.64
2022-12-23T22:26:25.332Z,87.55
2022-12-23T22:28:55.550Z,87.28
2022-12-23T22:31:42.436Z,88.38
2022-12-23T22:34:13.696Z,89.40
2022-12-23T22:36:41.524Z,89.81
2022-12-23T22:39:14.210Z,89.44
2022-12-23T22:41:45.243Z,89.07
2022-12-23T22:44:13.707Z,89.03
2022-12-23T22:46:41.705Z,89.17
2022-12-23T22:49:12.733Z,88.95
2022-12-23T22:51:41.125Z,88.74
2022-12-23T22:54:10.155Z,88.03
2022-12-23T22:56:38.293Z,88.08
2022-12-23T22:59:05.535Z,87.86
2022-12-23T23:01:34.759Z,87.88
2022-12-23T23:04:03.554Z,88.09
2022-12-23T23:06:38.015Z,88.01
2022-12-23T23:09:07.022Z,87.72
2022-12-23T23:11:35.019Z,87.28
2022-12-23T23:14:02.556Z,86.85
2022-12-23T23:16:30.306Z,86.70
2022-12-23T23:18:59.452Z,85.99
2022-12-23T23:21:27.396Z,86.24
2022-12-23T23:23:54.855Z,86.52
2022-12-23T23:26:22.726Z,86.90
2022-12-23T23:28:50.576Z,86.51
2022-12-23T23:34:05.732Z,85.75
2022-12-23T23:36:33.718Z,86.16
2022-12-23T23:39:01.635Z,85.99
2022-12-23T23:41:29.407Z,85.83
2022-12-23T23:43:56.746Z,86.29
2022-12-23T23:46:24.670Z,86.26
2022-12-23T23:48:52.563Z,86.21
2022-12-23T23:51:20.185Z,86.37
2022-12-23T23:53:47.582Z,86.67
2022-12-23T23:56:18.096Z,86.86
2022-12-23T23:58:47.756Z,87.09
